Portada
METAR-TAF:

METAR-TAF

Aeropuertos :

Aeropuerto Internacional de Yap

Yap, Micronesia

latitud: 09-29N, longitud: 138-05E, altitud: 28 m

Observación

El informe se hizo hace 24 minutos, a las 05:55 UTC
Viento 7 kt del este
Temperatura 30°C
Humedad 79%
Presión 1010 hPa
Visibilidad: 19.3 km
Nubes dispersas a una altura de 1600 ft, Cumulonimbus.
Nubes dispersas a una altura de 13000 ft
Cielo nuboso a una altura de 30000 ft

METAR: PTYA 020555Z 10007KT 12SM SCT016CB SCT130 BKN300 30/26 A2982 RMK CB E-SE AND SW-W MOV W SLP100 60014 8/371 T02980262 10303 20255 57015

Hora: 16:19 (06:19 UTC)

Pronóstico

El informe se hizo hace 43 minutos, a las 05:36 UTC
Pronóstico válido del 02 a las 06 UTC al 03 a las 06 UTC
Viento 11 kt del este
Visibilidad: 10 km
Nubes dispersas a una altura de 1600 ft
Nubes dispersas a una altura de 13000 ft
chaparrones en las proximidades

TAF: PTYA 020536Z 0206/0306 09011KT P6SM VCSH SCT016 SCT130

Observaciones y pronósticos meteorológicos de más de 4000 aeropuertos (mensajes METAR y TAF).

Los puntos amarillos y rojos representan las estaciones disponibles.

Ponga el ratón en el punto deseado para ver el nombre de la estación.

Haga clic para ver las observaciones y los pronósticos meteorológicos.

Para cambiar el mapa : haga clic en los botones verdes con una cruz de color negro para hacer un zoom, en el botón verde con un guión para alejar o en las flechas verdes para mapas adyacentes.


METAR-TAF: